Terminal Aerodrome Forecast
Issued by NWS

Home | Current Version | Previous Version | Text Only | Print | Product List | Glossary On
Versions: 1 2 3 4 5 6 7 8 9 10 11 12 13 14 15 16 17 18 19
000
FTUS43 KPAH 251643 AAA
TAFCGI
TAF AMD
KCGI 251643Z 2517/2612 VRB03KT P6SM BKN020
     FM251800 13004KT P6SM BKN040
     FM260000 VRB03KT P6SM SCT200
     FM260800 VRB02KT 3SM BR FEW010=

USA.gov is the U.S. government's official web portal to all federal, state and local government web resources and services.